sensor_id;sensor_type;location;lat;lon;timestamp;pressure;altitude;pressure_sealevel;temperature;humidity
80198;BME280;69517;52.030;7.106;2023-07-16T00:00:56;100032.53;;;23.87;84.87
80198;BME280;69517;52.030;7.106;2023-07-16T00:03:22;100031.69;;;23.86;84.81
80198;BME280;69517;52.030;7.106;2023-07-16T00:05:49;100040.59;;;23.85;85.02
80198;BME280;69517;52.030;7.106;2023-07-16T00:08:15;100039.47;;;23.88;84.84
80198;BME280;69517;52.030;7.106;2023-07-16T00:10:41;100044.91;;;23.86;84.73
80198;BME280;69517;52.030;7.106;2023-07-16T00:13:09;100042.25;;;23.86;85.07
80198;BME280;69517;52.030;7.106;2023-07-16T00:15:35;100038.94;;;23.84;85.04
80198;BME280;69517;52.030;7.106;2023-07-16T00:18:02;100053.78;;;23.85;84.68
80198;BME280;69517;52.030;7.106;2023-07-16T00:20:28;100047.53;;;23.86;84.98
80198;BME280;69517;52.030;7.106;2023-07-16T00:22:54;100047.81;;;23.83;84.81
80198;BME280;69517;52.030;7.106;2023-07-16T00:25:22;100041.59;;;23.84;84.70
80198;BME280;69517;52.030;7.106;2023-07-16T00:27:48;100044.34;;;23.83;84.96
80198;BME280;69517;52.030;7.106;2023-07-16T00:30:16;100051.84;;;23.88;84.58
80198;BME280;69517;52.030;7.106;2023-07-16T00:32:42;100050.31;;;23.85;84.93
80198;BME280;69517;52.030;7.106;2023-07-16T00:35:08;100051.16;;;23.85;84.61
80198;BME280;69517;52.030;7.106;2023-07-16T00:37:34;100050.47;;;23.83;84.55
80198;BME280;69517;52.030;7.106;2023-07-16T00:40:01;100053.09;;;23.83;84.86
80198;BME280;69517;52.030;7.106;2023-07-16T00:42:27;100047.81;;;23.83;84.73
80198;BME280;69517;52.030;7.106;2023-07-16T00:44:53;100047.97;;;23.82;84.78
80198;BME280;69517;52.030;7.106;2023-07-16T00:47:21;100052.16;;;23.84;84.58
80198;BME280;69517;52.030;7.106;2023-07-16T00:49:47;100052.28;;;23.83;84.88
80198;BME280;69517;52.030;7.106;2023-07-16T00:52:15;100050.59;;;23.82;84.93
80198;BME280;69517;52.030;7.106;2023-07-16T00:54:42;100052.41;;;23.81;85.01
80198;BME280;69517;52.030;7.106;2023-07-16T00:57:09;100058.38;;;23.83;84.68
80198;BME280;69517;52.030;7.106;2023-07-16T00:59:35;100047.97;;;23.82;84.71
80198;BME280;69517;52.030;7.106;2023-07-16T01:02:01;100054.78;;;23.84;84.58
80198;BME280;69517;52.030;7.106;2023-07-16T01:04:29;100052.28;;;23.83;84.98
80198;BME280;69517;52.030;7.106;2023-07-16T01:06:55;100050.72;;;23.80;84.78
80198;BME280;69517;52.030;7.106;2023-07-16T01:09:23;100049.75;;;23.81;85.00
80198;BME280;69517;52.030;7.106;2023-07-16T01:11:50;100053.25;;;23.82;84.52
80198;BME280;69517;52.030;7.106;2023-07-16T01:14:17;100051.69;;;23.79;84.58
80198;BME280;69517;52.030;7.106;2023-07-16T01:16:44;100055.03;;;23.81;84.59
80198;BME280;69517;52.030;7.106;2023-07-16T01:19:10;100048.09;;;23.80;84.77
80198;BME280;69517;52.030;7.106;2023-07-16T01:21:41;100045.31;;;23.82;84.60
80198;BME280;69517;52.030;7.106;2023-07-16T01:27:04;100038.38;;;23.81;84.61
80198;BME280;69517;52.030;7.106;2023-07-16T01:29:36;100042.13;;;23.78;84.66
80198;BME280;69517;52.030;7.106;2023-07-16T01:32:03;100054.06;;;23.82;84.62
80198;BME280;69517;52.030;7.106;2023-07-16T01:34:31;100046.28;;;23.81;84.63
80198;BME280;69517;52.030;7.106;2023-07-16T01:36:58;100047.13;;;23.81;84.43
80198;BME280;69517;52.030;7.106;2023-07-16T01:39:25;100056.97;;;23.79;84.62
80198;BME280;69517;52.030;7.106;2023-07-16T01:41:51;100051.56;;;23.81;84.70
80198;BME280;69517;52.030;7.106;2023-07-16T01:44:17;100055.34;;;23.78;84.91
80198;BME280;69517;52.030;7.106;2023-07-16T01:46:45;100056.13;;;23.79;84.86
80198;BME280;69517;52.030;7.106;2023-07-16T01:49:15;100060.59;;;23.78;84.65
80198;BME280;69517;52.030;7.106;2023-07-16T01:51:41;100055.34;;;23.78;84.60
80198;BME280;69517;52.030;7.106;2023-07-16T01:54:07;100062.25;;;23.79;84.50
80198;BME280;69517;52.030;7.106;2023-07-16T01:56:33;100070.03;;;23.81;84.47
80198;BME280;69517;52.030;7.106;2023-07-16T01:59:00;100078.94;;;23.80;84.63
80198;BME280;69517;52.030;7.106;2023-07-16T02:01:26;100080.72;;;23.79;84.60
80198;BME280;69517;52.030;7.106;2023-07-16T02:03:54;100080.06;;;23.77;84.67
80198;BME280;69517;52.030;7.106;2023-07-16T02:06:20;100079.09;;;23.78;84.62
80198;BME280;69517;52.030;7.106;2023-07-16T02:08:46;100081.44;;;23.81;84.36
80198;BME280;69517;52.030;7.106;2023-07-16T02:11:12;100082.53;;;23.79;84.60
80198;BME280;69517;52.030;7.106;2023-07-16T02:13:38;100081.56;;;23.80;84.67
80198;BME280;69517;52.030;7.106;2023-07-16T02:16:05;100080.06;;;23.77;84.60
80198;BME280;69517;52.030;7.106;2023-07-16T02:18:31;100081.72;;;23.78;84.65
80198;BME280;69517;52.030;7.106;2023-07-16T02:20:59;100083.25;;;23.81;84.25
80198;BME280;69517;52.030;7.106;2023-07-16T02:23:27;100083.66;;;23.76;84.75
80198;BME280;69517;52.030;7.106;2023-07-16T02:25:53;100089.47;;;23.80;84.60
80198;BME280;69517;52.030;7.106;2023-07-16T02:28:19;100080.19;;;23.76;84.63
80198;BME280;69517;52.030;7.106;2023-07-16T02:30:45;100083.66;;;23.76;84.57
80198;BME280;69517;52.030;7.106;2023-07-16T02:33:12;100076.44;;;23.78;84.42
80198;BME280;69517;52.030;7.106;2023-07-16T02:35:38;100076.44;;;23.78;84.70
80198;BME280;69517;52.030;7.106;2023-07-16T02:38:05;100075.88;;;23.75;84.58
80198;BME280;69517;52.030;7.106;2023-07-16T02:40:32;100075.59;;;23.78;84.49
80198;BME280;69517;52.030;7.106;2023-07-16T02:42:58;100088.94;;;23.76;84.71
80198;BME280;69517;52.030;7.106;2023-07-16T02:45:24;100081.03;;;23.76;84.40
80198;BME280;69517;52.030;7.106;2023-07-16T02:47:50;100083.66;;;23.76;84.70
80198;BME280;69517;52.030;7.106;2023-07-16T02:50:17;100082.94;;;23.74;84.64
80198;BME280;69517;52.030;7.106;2023-07-16T02:52:43;100104.78;;;23.76;84.45
80198;BME280;69517;52.030;7.106;2023-07-16T02:55:11;100108.38;;;23.75;84.42
80198;BME280;69517;52.030;7.106;2023-07-16T02:57:37;100110.06;;;23.76;84.23
80198;BME280;69517;52.030;7.106;2023-07-16T03:00:04;100103.09;;;23.75;84.42
80198;BME280;69517;52.030;7.106;2023-07-16T03:02:30;100103.22;;;23.74;84.28
80198;BME280;69517;52.030;7.106;2023-07-16T03:04:56;100110.75;;;23.78;84.21
80198;BME280;69517;52.030;7.106;2023-07-16T03:07:23;100106.16;;;23.80;84.37
80198;BME280;69517;52.030;7.106;2023-07-16T03:09:49;100109.22;;;23.76;84.65
80198;BME280;69517;52.030;7.106;2023-07-16T03:12:16;100106.72;;;23.74;84.57
80198;BME280;69517;52.030;7.106;2023-07-16T03:14:43;100107.28;;;23.78;84.29
80198;BME280;69517;52.030;7.106;2023-07-16T03:17:09;100098.66;;;23.76;84.14
80198;BME280;69517;52.030;7.106;2023-07-16T03:19:35;100104.78;;;23.76;84.36
80198;BME280;69517;52.030;7.106;2023-07-16T03:22:02;100108.38;;;23.75;84.29
80198;BME280;69517;52.030;7.106;2023-07-16T03:24:29;100116.28;;;23.75;84.45
80198;BME280;69517;52.030;7.106;2023-07-16T03:26:55;100113.66;;;23.75;84.49
80198;BME280;69517;52.030;7.106;2023-07-16T03:29:24;100110.31;;;23.73;84.63
80198;BME280;69517;52.030;7.106;2023-07-16T03:31:50;100110.19;;;23.75;84.43
80198;BME280;69517;52.030;7.106;2023-07-16T03:34:17;100108.50;;;23.74;84.53
80198;BME280;69517;52.030;7.106;2023-07-16T03:36:43;100109.34;;;23.74;84.55
80198;BME280;69517;52.030;7.106;2023-07-16T03:39:09;100110.31;;;23.73;84.57
80198;BME280;69517;52.030;7.106;2023-07-16T03:41:36;100113.78;;;23.74;84.46
80198;BME280;69517;52.030;7.106;2023-07-16T03:44:02;100116.16;;;23.77;84.22
80198;BME280;69517;52.030;7.106;2023-07-16T03:46:30;100112.13;;;23.73;84.34
80198;BME280;69517;52.030;7.106;2023-07-16T03:48:56;100126.16;;;23.73;84.66
80198;BME280;69517;52.030;7.106;2023-07-16T03:51:23;100126.97;;;23.74;84.48
80198;BME280;69517;52.030;7.106;2023-07-16T03:53:49;100123.50;;;23.73;84.23
80198;BME280;69517;52.030;7.106;2023-07-16T03:56:15;100124.50;;;23.72;84.57
80198;BME280;69517;52.030;7.106;2023-07-16T03:58:41;100119.78;;;23.76;84.13
80198;BME280;69517;52.030;7.106;2023-07-16T04:01:08;100129.78;;;23.72;84.58
80198;BME280;69517;52.030;7.106;2023-07-16T04:03:36;100135.88;;;23.73;84.37
80198;BME280;69517;52.030;7.106;2023-07-16T04:06:02;100137.53;;;23.74;84.34
80198;BME280;69517;52.030;7.106;2023-07-16T04:08:29;100141.72;;;23.76;83.92
80198;BME280;69517;52.030;7.106;2023-07-16T04:10:55;100138.38;;;23.74;84.28
80198;BME280;69517;52.030;7.106;2023-07-16T04:13:21;100136.88;;;23.72;84.65
80198;BME280;69517;52.030;7.106;2023-07-16T04:15:48;100138.50;;;23.73;84.08
80198;BME280;69517;52.030;7.106;2023-07-16T04:18:14;100144.50;;;23.75;84.27
80198;BME280;69517;52.030;7.106;2023-07-16T04:20:42;100147.25;;;23.73;84.38
80198;BME280;69517;52.030;7.106;2023-07-16T04:23:08;100149.91;;;23.73;84.32
80198;BME280;69517;52.030;7.106;2023-07-16T04:25:35;100153.53;;;23.72;84.63
80198;BME280;69517;52.030;7.106;2023-07-16T04:28:01;100157.13;;;23.71;84.52
80198;BME280;69517;52.030;7.106;2023-07-16T04:30:29;100150.91;;;23.72;84.33
80198;BME280;69517;52.030;7.106;2023-07-16T04:32:55;100153.66;;;23.71;84.44
80198;BME280;69517;52.030;7.106;2023-07-16T04:35:21;100159.63;;;23.73;84.29
80198;BME280;69517;52.030;7.106;2023-07-16T04:37:49;100165.06;;;23.71;84.61
80198;BME280;69517;52.030;7.106;2023-07-16T04:40:15;100166.72;;;23.72;84.26
80198;BME280;69517;52.030;7.106;2023-07-16T04:42:41;100171.31;;;23.70;84.61
80198;BME280;69517;52.030;7.106;2023-07-16T04:45:08;100184.22;;;23.73;84.42
80198;BME280;69517;52.030;7.106;2023-07-16T04:47:34;100178.09;;;23.73;84.38
80198;BME280;69517;52.030;7.106;2023-07-16T04:50:00;100180.72;;;23.73;84.40
80198;BME280;69517;52.030;7.106;2023-07-16T04:52:27;100187.00;;;23.72;84.27
80198;BME280;69517;52.030;7.106;2023-07-16T04:54:54;100179.94;;;23.72;84.13
80198;BME280;69517;52.030;7.106;2023-07-16T04:57:21;100187.97;;;23.71;84.50
80198;BME280;69517;52.030;7.106;2023-07-16T04:59:47;100184.50;;;23.70;84.34
80198;BME280;69517;52.030;7.106;2023-07-16T05:02:14;100202.00;;;23.71;84.41
80198;BME280;69517;52.030;7.106;2023-07-16T05:04:42;100189.66;;;23.72;84.08
80198;BME280;69517;52.030;7.106;2023-07-16T05:07:09;100188.81;;;23.71;84.40
80198;BME280;69517;52.030;7.106;2023-07-16T05:09:35;100192.53;;;23.69;84.44
80198;BME280;69517;52.030;7.106;2023-07-16T05:12:03;100196.56;;;23.73;84.24
80198;BME280;69517;52.030;7.106;2023-07-16T05:14:41;100197.69;;;23.70;83.96
80198;BME280;69517;52.030;7.106;2023-07-16T05:17:08;100195.88;;;23.71;84.24
80198;BME280;69517;52.030;7.106;2023-07-16T05:19:34;100196.13;;;23.68;84.44
80198;BME280;69517;52.030;7.106;2023-07-16T05:22:00;100212.56;;;23.71;83.97
80198;BME280;69517;52.030;7.106;2023-07-16T05:24:27;100201.28;;;23.69;84.14
80198;BME280;69517;52.030;7.106;2023-07-16T05:26:53;100203.22;;;23.67;84.12
80198;BME280;69517;52.030;7.106;2023-07-16T05:29:20;100202.25;;;23.68;84.50
80198;BME280;69517;52.030;7.106;2023-07-16T05:31:47;100211.00;;;23.69;84.32
80198;BME280;69517;52.030;7.106;2023-07-16T05:34:13;100214.63;;;23.68;84.34
80198;BME280;69517;52.030;7.106;2023-07-16T05:36:40;100221.44;;;23.70;84.31
80198;BME280;69517;52.030;7.106;2023-07-16T05:39:09;100226.00;;;23.68;84.31
80198;BME280;69517;52.030;7.106;2023-07-16T05:41:37;100223.38;;;23.68;84.42
80198;BME280;69517;52.030;7.106;2023-07-16T05:44:03;100239.56;;;22.92;79.14
80198;BME280;69517;52.030;7.106;2023-07-16T05:46:31;100242.41;;;22.68;79.37
80198;BME280;69517;52.030;7.106;2023-07-16T05:48:57;100235.75;;;22.53;78.50
80198;BME280;69517;52.030;7.106;2023-07-16T05:51:23;100243.91;;;22.50;77.89
80198;BME280;69517;52.030;7.106;2023-07-16T05:53:50;100244.09;;;21.93;77.30
80198;BME280;69517;52.030;7.106;2023-07-16T05:56:16;100258.88;;;21.95;77.69
80198;BME280;69517;52.030;7.106;2023-07-16T05:58:42;100259.66;;;21.73;76.28
80198;BME280;69517;52.030;7.106;2023-07-16T06:01:08;100254.75;;;21.58;77.73
80198;BME280;69517;52.030;7.106;2023-07-16T06:03:36;100265.53;;;21.77;77.65
80198;BME280;69517;52.030;7.106;2023-07-16T06:06:02;100260.28;;;21.77;77.14
80198;BME280;69517;52.030;7.106;2023-07-16T06:08:29;100250.50;;;22.01;76.92
80198;BME280;69517;52.030;7.106;2023-07-16T06:10:55;100257.91;;;22.07;75.93
80198;BME280;69517;52.030;7.106;2023-07-16T06:13:21;100262.91;;;21.88;75.79
80198;BME280;69517;52.030;7.106;2023-07-16T06:15:47;100253.78;;;21.92;75.71
80198;BME280;69517;52.030;7.106;2023-07-16T06:18:14;100257.75;;;21.86;76.41
80198;BME280;69517;52.030;7.106;2023-07-16T06:20:44;100266.97;;;21.92;76.25
80198;BME280;69517;52.030;7.106;2023-07-16T06:23:10;100261.44;;;21.84;76.26
80198;BME280;69517;52.030;7.106;2023-07-16T06:25:37;100251.75;;;21.84;76.63
80198;BME280;69517;52.030;7.106;2023-07-16T06:28:05;100255.94;;;22.32;75.91
80198;BME280;69517;52.030;7.106;2023-07-16T06:30:31;100263.72;;;22.65;74.98
80198;BME280;69517;52.030;7.106;2023-07-16T06:32:58;100259.03;;;22.80;74.28
80198;BME280;69517;52.030;7.106;2023-07-16T06:35:25;100262.69;;;22.88;74.71
80198;BME280;69517;52.030;7.106;2023-07-16T06:37:52;100255.97;;;22.95;74.94
80198;BME280;69517;52.030;7.106;2023-07-16T06:40:18;100273.66;;;23.04;75.06
80198;BME280;69517;52.030;7.106;2023-07-16T06:42:45;100279.56;;;22.97;75.57
80198;BME280;69517;52.030;7.106;2023-07-16T06:45:11;100270.44;;;23.01;75.98
80198;BME280;69517;52.030;7.106;2023-07-16T06:47:37;100279.78;;;23.05;76.19
80198;BME280;69517;52.030;7.106;2023-07-16T06:50:04;100281.44;;;23.06;76.27
80198;BME280;69517;52.030;7.106;2023-07-16T06:52:30;100287.41;;;23.08;76.46
80198;BME280;69517;52.030;7.106;2023-07-16T06:54:58;100283.81;;;23.09;76.45
80198;BME280;69517;52.030;7.106;2023-07-16T06:57:24;100284.28;;;23.14;76.44
80198;BME280;69517;52.030;7.106;2023-07-16T06:59:50;100283.44;;;23.14;76.79
80198;BME280;69517;52.030;7.106;2023-07-16T07:02:17;100285.34;;;23.12;76.03
80198;BME280;69517;52.030;7.106;2023-07-16T07:04:43;100306.44;;;22.91;75.57
80198;BME280;69517;52.030;7.106;2023-07-16T07:07:09;100298.41;;;22.92;75.51
80198;BME280;69517;52.030;7.106;2023-07-16T07:09:36;100307.47;;;22.99;74.23
80198;BME280;69517;52.030;7.106;2023-07-16T07:12:04;100296.28;;;23.07;75.43
80198;BME280;69517;52.030;7.106;2023-07-16T07:14:30;100308.00;;;23.14;75.39
80198;BME280;69517;52.030;7.106;2023-07-16T07:16:56;100310.97;;;23.21;75.16
80198;BME280;69517;52.030;7.106;2023-07-16T07:19:23;100296.81;;;23.22;75.58
80198;BME280;69517;52.030;7.106;2023-07-16T07:21:49;100303.63;;;23.24;75.81
80198;BME280;69517;52.030;7.106;2023-07-16T07:24:15;100291.28;;;23.25;75.91
80198;BME280;69517;52.030;7.106;2023-07-16T07:26:42;100311.09;;;23.19;75.98
80198;BME280;69517;52.030;7.106;2023-07-16T07:29:09;100308.91;;;23.24;75.13
80198;BME280;69517;52.030;7.106;2023-07-16T07:31:35;100303.94;;;23.31;75.26
80198;BME280;69517;52.030;7.106;2023-07-16T07:34:02;100301.19;;;23.32;76.00
80198;BME280;69517;52.030;7.106;2023-07-16T07:36:28;100311.34;;;23.37;76.13
80198;BME280;69517;52.030;7.106;2023-07-16T07:38:55;100305.97;;;23.38;76.60
80198;BME280;69517;52.030;7.106;2023-07-16T07:41:21;100304.88;;;23.41;76.96
80198;BME280;69517;52.030;7.106;2023-07-16T07:43:47;100314.59;;;23.40;77.03
80198;BME280;69517;52.030;7.106;2023-07-16T07:46:15;100318.91;;;23.41;77.22
80198;BME280;69517;52.030;7.106;2023-07-16T07:48:41;100315.28;;;23.42;77.30
80198;BME280;69517;52.030;7.106;2023-07-16T07:51:07;100321.38;;;23.43;77.33
80198;BME280;69517;52.030;7.106;2023-07-16T07:53:34;100312.41;;;23.45;77.19
80198;BME280;69517;52.030;7.106;2023-07-16T07:56:00;100320.44;;;23.44;77.47
80198;BME280;69517;52.030;7.106;2023-07-16T07:58:26;100317.66;;;23.45;77.41
80198;BME280;69517;52.030;7.106;2023-07-16T08:00:52;100321.16;;;23.46;77.61
80198;BME280;69517;52.030;7.106;2023-07-16T08:03:20;100330.16;;;23.43;77.70
80198;BME280;69517;52.030;7.106;2023-07-16T08:05:48;100339.63;;;23.46;77.69
80198;BME280;69517;52.030;7.106;2023-07-16T08:08:14;100326.53;;;23.44;77.55
80198;BME280;69517;52.030;7.106;2023-07-16T08:10:40;100324.66;;;23.47;77.88
80198;BME280;69517;52.030;7.106;2023-07-16T08:13:06;100325.34;;;23.49;77.82
80198;BME280;69517;52.030;7.106;2023-07-16T08:15:33;100336.06;;;23.47;77.53
80198;BME280;69517;52.030;7.106;2023-07-16T08:17:59;100345.66;;;23.48;77.61
80198;BME280;69517;52.030;7.106;2023-07-16T08:20:27;100342.72;;;23.51;77.44
80198;BME280;69517;52.030;7.106;2023-07-16T08:22:53;100345.66;;;23.48;77.76
80198;BME280;69517;52.030;7.106;2023-07-16T08:25:19;100346.34;;;23.50;77.55
80198;BME280;69517;52.030;7.106;2023-07-16T08:27:46;100341.06;;;23.50;77.71
80198;BME280;69517;52.030;7.106;2023-07-16T08:30:13;100343.81;;;23.49;77.69
80198;BME280;69517;52.030;7.106;2023-07-16T08:32:39;100345.66;;;23.48;77.34
80198;BME280;69517;52.030;7.106;2023-07-16T08:35:06;100350.28;;;23.44;77.28
80198;BME280;69517;52.030;7.106;2023-07-16T08:37:33;100350.78;;;23.50;77.25
80198;BME280;69517;52.030;7.106;2023-07-16T08:40:00;100348.97;;;23.50;76.94
80198;BME280;69517;52.030;7.106;2023-07-16T08:42:26;100355.09;;;23.51;77.42
80198;BME280;69517;52.030;7.106;2023-07-16T08:44:52;100341.19;;;23.49;77.58
80198;BME280;69517;52.030;7.106;2023-07-16T08:47:19;100351.59;;;23.50;77.40
80198;BME280;69517;52.030;7.106;2023-07-16T08:49:48;100349.09;;;23.49;77.39
80198;BME280;69517;52.030;7.106;2023-07-16T08:52:19;100359.66;;;23.49;77.47
80198;BME280;69517;52.030;7.106;2023-07-16T08:54:47;100357.72;;;23.51;77.39
80198;BME280;69517;52.030;7.106;2023-07-16T08:57:13;100358.84;;;23.48;77.84
80198;BME280;69517;52.030;7.106;2023-07-16T08:59:40;100359.53;;;23.50;77.62
80198;BME280;69517;52.030;7.106;2023-07-16T09:02:06;100360.38;;;23.51;77.54
80198;BME280;69517;52.030;7.106;2023-07-16T09:04:32;100357.59;;;23.52;77.60
80198;BME280;69517;52.030;7.106;2023-07-16T09:06:59;100365.41;;;23.54;77.80
80198;BME280;69517;52.030;7.106;2023-07-16T09:09:25;100363.44;;;23.56;77.35
80198;BME280;69517;52.030;7.106;2023-07-16T09:11:53;100355.41;;;23.57;77.72
80198;BME280;69517;52.030;7.106;2023-07-16T09:14:20;100350.84;;;23.59;77.82
80198;BME280;69517;52.030;7.106;2023-07-16T09:16:49;100361.13;;;23.62;77.90
80198;BME280;69517;52.030;7.106;2023-07-16T09:19:16;100367.38;;;23.61;78.05
80198;BME280;69517;52.030;7.106;2023-07-16T09:21:45;100367.38;;;23.61;78.03
80198;BME280;69517;52.030;7.106;2023-07-16T09:24:11;100372.19;;;23.56;77.64
80198;BME280;69517;52.030;7.106;2023-07-16T09:26:38;100375.22;;;23.52;76.92
80198;BME280;69517;52.030;7.106;2023-07-16T09:29:06;100373.00;;;23.47;76.42
80198;BME280;69517;52.030;7.106;2023-07-16T09:31:33;100372.34;;;23.43;74.17
80198;BME280;69517;52.030;7.106;2023-07-16T09:33:59;100381.50;;;23.39;73.73
80198;BME280;69517;52.030;7.106;2023-07-16T09:36:25;100390.50;;;23.37;71.60
80198;BME280;69517;52.030;7.106;2023-07-16T09:38:52;100395.53;;;23.40;71.89
80198;BME280;69517;52.030;7.106;2023-07-16T09:41:19;100392.78;;;23.41;72.15
80198;BME280;69517;52.030;7.106;2023-07-16T09:43:46;100401.19;;;23.47;73.09
80198;BME280;69517;52.030;7.106;2023-07-16T09:46:14;100402.69;;;23.49;73.82
80198;BME280;69517;52.030;7.106;2023-07-16T09:48:40;100399.09;;;23.50;74.07
80198;BME280;69517;52.030;7.106;2023-07-16T09:51:07;100408.69;;;23.51;74.37
80198;BME280;69517;52.030;7.106;2023-07-16T09:53:35;100402.47;;;23.52;74.06
80198;BME280;69517;52.030;7.106;2023-07-16T09:56:05;100400.78;;;23.51;74.63
80198;BME280;69517;52.030;7.106;2023-07-16T09:58:31;100407.03;;;23.50;75.29
80198;BME280;69517;52.030;7.106;2023-07-16T10:00:57;100407.03;;;23.50;75.26
80198;BME280;69517;52.030;7.106;2023-07-16T10:03:25;100417.44;;;23.52;76.19
80198;BME280;69517;52.030;7.106;2023-07-16T10:05:52;100407.47;;;23.55;75.77
80198;BME280;69517;52.030;7.106;2023-07-16T10:08:18;100413.84;;;23.53;76.36
80198;BME280;69517;52.030;7.106;2023-07-16T10:10:45;100408.59;;;23.53;75.95
80198;BME280;69517;52.030;7.106;2023-07-16T10:13:13;100405.81;;;23.54;75.65
80198;BME280;69517;52.030;7.106;2023-07-16T10:15:50;100410.25;;;23.54;75.94
80198;BME280;69517;52.030;7.106;2023-07-16T10:18:22;100411.78;;;23.56;76.21
80198;BME280;69517;52.030;7.106;2023-07-16T10:20:50;100413.75;;;23.54;76.53
80198;BME280;69517;52.030;7.106;2023-07-16T10:23:17;100404.13;;;23.53;76.46
80198;BME280;69517;52.030;7.106;2023-07-16T10:25:57;100414.69;;;23.53;76.71
80198;BME280;69517;52.030;7.106;2023-07-16T10:28:23;100414.94;;;23.50;76.25
80198;BME280;69517;52.030;7.106;2023-07-16T10:30:49;100416.38;;;23.54;73.93
80198;BME280;69517;52.030;7.106;2023-07-16T10:33:16;100431.38;;;23.54;74.75
80198;BME280;69517;52.030;7.106;2023-07-16T10:35:44;100428.59;;;23.55;75.24
80198;BME280;69517;52.030;7.106;2023-07-16T10:38:12;100433.00;;;23.55;74.63
80198;BME280;69517;52.030;7.106;2023-07-16T10:40:39;100435.66;;;23.55;73.67
80198;BME280;69517;52.030;7.106;2023-07-16T10:43:05;100438.44;;;23.53;73.41
80198;BME280;69517;52.030;7.106;2023-07-16T10:45:32;100441.94;;;23.54;72.54
80198;BME280;69517;52.030;7.106;2023-07-16T10:47:59;100443.56;;;23.55;72.61
80198;BME280;69517;52.030;7.106;2023-07-16T10:50:25;100438.44;;;23.53;72.56
80198;BME280;69517;52.030;7.106;2023-07-16T10:52:52;100446.22;;;23.55;72.71
80198;BME280;69517;52.030;7.106;2023-07-16T10:55:20;100447.19;;;23.54;72.22
80198;BME280;69517;52.030;7.106;2023-07-16T10:57:47;100438.81;;;23.49;70.75
80198;BME280;69517;52.030;7.106;2023-07-16T11:00:13;100454.72;;;23.58;71.44
80198;BME280;69517;52.030;7.106;2023-07-16T11:02:40;100460.25;;;23.55;72.50
80198;BME280;69517;52.030;7.106;2023-07-16T11:05:09;100458.84;;;23.51;72.67
80198;BME280;69517;52.030;7.106;2023-07-16T11:07:35;100459.41;;;23.55;72.71
80198;BME280;69517;52.030;7.106;2023-07-16T11:10:01;100459.28;;;23.56;73.17
80198;BME280;69517;52.030;7.106;2023-07-16T11:12:30;100450.41;;;23.57;73.29
80198;BME280;69517;52.030;7.106;2023-07-16T11:14:56;100458.31;;;23.57;73.29
80198;BME280;69517;52.030;7.106;2023-07-16T11:17:23;100464.28;;;23.70;73.49
80198;BME280;69517;52.030;7.106;2023-07-16T11:19:50;100453.94;;;23.67;72.04
80198;BME280;69517;52.030;7.106;2023-07-16T11:22:16;100459.13;;;23.69;69.81
80198;BME280;69517;52.030;7.106;2023-07-16T11:24:43;100453.72;;;23.70;70.02
80198;BME280;69517;52.030;7.106;2023-07-16T11:27:13;100461.50;;;23.72;70.66
80198;BME280;69517;52.030;7.106;2023-07-16T11:29:44;100467.47;;;23.74;71.91
80198;BME280;69517;52.030;7.106;2023-07-16T11:32:10;100464.00;;;23.73;73.23
80198;BME280;69517;52.030;7.106;2023-07-16T11:34:37;100474.03;;;23.79;73.70
80198;BME280;69517;52.030;7.106;2023-07-16T11:37:06;100468.66;;;23.81;75.44
80198;BME280;69517;52.030;7.106;2023-07-16T11:39:33;100481.63;;;23.84;75.94
80198;BME280;69517;52.030;7.106;2023-07-16T11:41:59;100474.88;;;23.80;76.49
80198;BME280;69517;52.030;7.106;2023-07-16T11:44:31;100476.56;;;23.81;75.63
80198;BME280;69517;52.030;7.106;2023-07-16T11:46:59;100467.81;;;23.80;76.22
80198;BME280;69517;52.030;7.106;2023-07-16T11:49:25;100481.00;;;23.80;76.73
80198;BME280;69517;52.030;7.106;2023-07-16T11:51:52;100476.56;;;23.81;76.09
80198;BME280;69517;52.030;7.106;2023-07-16T11:54:18;100482.13;;;23.78;76.87
80198;BME280;69517;52.030;7.106;2023-07-16T11:56:44;100487.41;;;23.78;76.86
80198;BME280;69517;52.030;7.106;2023-07-16T11:59:12;100482.19;;;23.56;73.84
80198;BME280;69517;52.030;7.106;2023-07-16T12:01:38;100485.28;;;23.18;68.76
80198;BME280;69517;52.030;7.106;2023-07-16T12:04:06;100479.31;;;22.93;68.42
80198;BME280;69517;52.030;7.106;2023-07-16T12:06:32;100481.97;;;22.82;67.44
80198;BME280;69517;52.030;7.106;2023-07-16T12:08:58;100476.22;;;22.88;66.96
80198;BME280;69517;52.030;7.106;2023-07-16T12:11:25;100483.84;;;23.14;66.89
80198;BME280;69517;52.030;7.106;2023-07-16T12:13:51;100483.97;;;23.23;67.18
80198;BME280;69517;52.030;7.106;2023-07-16T12:16:17;100487.66;;;23.32;67.84
80198;BME280;69517;52.030;7.106;2023-07-16T12:18:43;100493.88;;;23.42;68.34
80198;BME280;69517;52.030;7.106;2023-07-16T12:21:11;100488.13;;;23.48;69.19
80198;BME280;69517;52.030;7.106;2023-07-16T12:23:37;100487.75;;;23.53;69.94
80198;BME280;69517;52.030;7.106;2023-07-16T12:26:04;100481.34;;;23.55;70.51
80198;BME280;69517;52.030;7.106;2023-07-16T12:28:30;100489.28;;;23.55;71.12
80198;BME280;69517;52.030;7.106;2023-07-16T12:30:56;100492.63;;;23.57;71.20
80198;BME280;69517;52.030;7.106;2023-07-16T12:33:25;100496.22;;;23.56;71.31
80198;BME280;69517;52.030;7.106;2023-07-16T12:35:51;100490.94;;;23.56;71.83
80198;BME280;69517;52.030;7.106;2023-07-16T12:38:19;100494.19;;;23.60;71.74
80198;BME280;69517;52.030;7.106;2023-07-16T12:40:46;100488.19;;;23.58;72.10
80198;BME280;69517;52.030;7.106;2023-07-16T12:43:12;100491.56;;;23.60;72.24
80198;BME280;69517;52.030;7.106;2023-07-16T12:45:38;100494.19;;;23.60;72.01
80198;BME280;69517;52.030;7.106;2023-07-16T12:48:05;100487.13;;;23.60;72.45
80198;BME280;69517;52.030;7.106;2023-07-16T12:50:31;100500.03;;;23.63;72.69